createdAt,value
2017-08-30T00:00:42.713Z,98915
2017-08-30T00:02:50.438Z,98925
2017-08-30T00:04:59.387Z,98921
2017-08-30T00:07:05.810Z,98927
2017-08-30T00:09:12.171Z,98925
2017-08-30T00:11:18.644Z,98927
2017-08-30T00:13:24.331Z,98932
2017-08-30T00:15:30.269Z,98932
2017-08-30T00:17:36.410Z,98926
2017-08-30T00:19:43.552Z,98919
2017-08-30T00:21:51.633Z,98917
2017-08-30T00:24:02.910Z,98909
2017-08-30T00:26:32.567Z,98916
2017-08-30T00:28:39.474Z,98913
2017-08-30T00:30:47.539Z,98910
2017-08-30T00:32:55.713Z,98906
2017-08-30T00:35:01.838Z,98901
2017-08-30T00:37:08.381Z,98903
2017-08-30T00:39:14.581Z,98903
2017-08-30T00:41:21.167Z,98899
2017-08-30T00:43:27.596Z,98899
2017-08-30T00:45:34.185Z,98896
2017-08-30T00:47:42.515Z,98893
2017-08-30T00:49:51.191Z,98892
2017-08-30T00:51:59.826Z,98892
2017-08-30T00:54:05.676Z,98892
2017-08-30T00:56:12.271Z,98892
2017-08-30T00:58:18.587Z,98888
2017-08-30T01:00:25.004Z,98882
2017-08-30T01:02:31.489Z,98883
2017-08-30T01:04:38.215Z,98879
2017-08-30T01:06:49.956Z,98876
2017-08-30T01:08:58.682Z,98873
2017-08-30T01:11:04.824Z,98871
2017-08-30T01:13:11.141Z,98870
2017-08-30T01:15:17.492Z,98870
2017-08-30T01:17:24.131Z,98867
2017-08-30T01:19:30.408Z,98859
2017-08-30T01:21:36.921Z,98859
2017-08-30T01:23:45.877Z,98855
2017-08-30T01:25:54.676Z,98853
2017-08-30T01:28:01.202Z,98851
2017-08-30T01:30:08.452Z,98855
2017-08-30T01:32:15.189Z,98848
2017-08-30T01:34:21.248Z,98845
2017-08-30T01:36:27.557Z,98850
2017-08-30T01:38:34.397Z,98844
2017-08-30T01:40:45.225Z,98842
2017-08-30T01:42:54.560Z,98847
2017-08-30T01:45:02.429Z,98839
2017-08-30T01:47:08.934Z,98836
2017-08-30T01:49:19.966Z,98832
2017-08-30T01:51:26.186Z,98833
2017-08-30T01:53:32.328Z,98827
2017-08-30T01:55:40.355Z,98833
2017-08-30T01:57:48.376Z,98836
2017-08-30T01:59:56.454Z,98832
2017-08-30T02:02:02.720Z,98822
2017-08-30T02:04:10.080Z,98821
2017-08-30T02:06:16.214Z,98822
2017-08-30T02:08:22.512Z,98829
2017-08-30T02:10:29.060Z,98824
2017-08-30T02:12:35.284Z,98826
2017-08-30T02:14:42.335Z,98832
2017-08-30T02:16:51.960Z,98831
2017-08-30T02:19:03.911Z,98827
2017-08-30T02:21:11.425Z,98834
2017-08-30T02:23:46.495Z,98835
2017-08-30T02:25:58.220Z,98833
2017-08-30T02:28:06.517Z,98836
2017-08-30T02:30:12.102Z,98837
2017-08-30T02:32:17.898Z,98830
2017-08-30T02:34:25.009Z,98828
2017-08-30T02:36:31.639Z,98829
2017-08-30T02:38:39.903Z,98832
2017-08-30T02:40:56.960Z,98825
2017-08-30T02:43:04.894Z,98829
2017-08-30T02:45:11.146Z,98830
2017-08-30T02:47:17.869Z,98828
2017-08-30T02:49:24.534Z,98828
2017-08-30T02:51:34.668Z,98823
2017-08-30T02:53:42.483Z,98824
2017-08-30T02:55:53.832Z,98823
2017-08-30T02:58:00.703Z,98819
2017-08-30T03:00:07.931Z,98820
2017-08-30T03:02:20.050Z,98817
2017-08-30T03:04:26.346Z,98815
2017-08-30T03:06:32.910Z,98818
2017-08-30T03:08:40.197Z,98810
2017-08-30T03:10:49.355Z,98813
2017-08-30T03:12:58.322Z,98811
2017-08-30T03:15:04.735Z,98822
2017-08-30T03:17:11.581Z,98816
2017-08-30T03:19:17.645Z,98818
2017-08-30T03:21:24.152Z,98820
2017-08-30T03:23:30.868Z,98817
2017-08-30T03:25:36.899Z,98820
2017-08-30T03:27:46.827Z,98817
2017-08-30T03:29:55.051Z,98817
2017-08-30T03:32:01.230Z,98816
2017-08-30T03:34:07.265Z,98814
2017-08-30T03:36:13.295Z,98814
2017-08-30T03:38:19.834Z,98807
2017-08-30T03:40:25.922Z,98801
2017-08-30T03:42:32.342Z,98804
2017-08-30T03:44:39.873Z,98798
2017-08-30T03:46:46.841Z,98794
2017-08-30T03:48:54.100Z,98799
2017-08-30T03:51:03.374Z,98797
2017-08-30T03:53:09.524Z,98792
2017-08-30T03:55:15.489Z,98788
2017-08-30T03:57:21.631Z,98797
2017-08-30T03:59:27.277Z,98798
2017-08-30T04:01:34.243Z,98800
2017-08-30T04:03:41.282Z,98795
2017-08-30T04:05:51.343Z,98803
2017-08-30T04:07:59.315Z,98800
2017-08-30T04:10:06.740Z,98796
2017-08-30T04:12:13.025Z,98803
2017-08-30T04:14:19.624Z,98804
2017-08-30T04:16:25.622Z,98810
2017-08-30T04:18:34.006Z,98802
2017-08-30T04:20:43.718Z,98797
2017-08-30T04:22:55.799Z,98796
2017-08-30T04:25:03.186Z,98793
2017-08-30T04:27:09.464Z,98798
2017-08-30T04:29:15.466Z,98803
2017-08-30T04:31:21.535Z,98800
2017-08-30T04:33:28.526Z,98795
2017-08-30T04:35:34.076Z,98800
2017-08-30T04:37:41.271Z,98800
2017-08-30T04:39:50.394Z,98803
2017-08-30T04:41:58.364Z,98803
2017-08-30T04:44:04.336Z,98800
2017-08-30T04:46:15.417Z,98806
2017-08-30T04:48:22.138Z,98801
2017-08-30T04:50:28.446Z,98797
2017-08-30T04:52:34.063Z,98800
2017-08-30T04:54:41.204Z,98794
2017-08-30T04:56:50.308Z,98797
2017-08-30T04:58:57.414Z,98792
2017-08-30T05:01:03.213Z,98796
2017-08-30T05:03:09.245Z,98790
2017-08-30T05:05:14.855Z,98791
2017-08-30T05:07:22.685Z,98786
2017-08-30T05:09:30.822Z,98791
2017-08-30T05:11:39.417Z,98787
2017-08-30T05:13:46.784Z,98792
2017-08-30T05:15:55.348Z,98792
2017-08-30T05:18:03.445Z,98795
2017-08-30T05:20:09.023Z,98795
2017-08-30T05:22:15.224Z,98793
2017-08-30T05:24:21.229Z,98794
2017-08-30T05:26:26.762Z,98783
2017-08-30T05:28:32.402Z,98786
2017-08-30T05:30:40.810Z,98783
2017-08-30T05:32:51.468Z,98788
2017-08-30T05:34:58.426Z,98782
2017-08-30T05:37:07.159Z,98783
2017-08-30T05:39:14.143Z,98780
2017-08-30T05:41:20.367Z,98779
2017-08-30T05:43:26.782Z,98779
2017-08-30T05:45:32.476Z,98780
2017-08-30T05:47:42.414Z,98780
2017-08-30T05:49:49.559Z,98776
2017-08-30T05:51:59.672Z,98776
2017-08-30T05:54:05.921Z,98779
2017-08-30T05:56:17.344Z,98782
2017-08-30T05:58:23.877Z,98778
2017-08-30T06:00:29.927Z,98774
2017-08-30T06:02:36.422Z,98774
2017-08-30T06:04:44.948Z,98779
2017-08-30T06:06:55.579Z,98777
2017-08-30T06:09:02.288Z,98777
2017-08-30T06:11:09.566Z,98778
2017-08-30T06:15:26.557Z,98782
2017-08-30T06:17:33.581Z,98788
2017-08-30T06:19:40.602Z,98788
2017-08-30T06:21:48.578Z,98784
2017-08-30T06:23:58.650Z,98776
2017-08-30T06:26:05.653Z,98777
2017-08-30T06:28:13.017Z,98777
2017-08-30T06:30:19.934Z,98774
2017-08-30T06:32:26.087Z,98775
2017-08-30T06:34:32.740Z,98772
2017-08-30T06:36:40.647Z,98779
2017-08-30T06:38:54.877Z,98783
2017-08-30T06:41:01.570Z,98775
2017-08-30T06:43:07.254Z,98777
2017-08-30T06:45:13.863Z,98776
2017-08-30T06:47:19.648Z,98776
2017-08-30T06:49:25.582Z,98776
2017-08-30T06:51:31.439Z,98770
2017-08-30T06:53:37.214Z,98766
2017-08-30T06:55:46.240Z,98765
2017-08-30T06:57:59.546Z,98754
2017-08-30T07:00:08.951Z,98759
2017-08-30T07:02:16.363Z,98759
2017-08-30T07:04:22.982Z,98763
2017-08-30T07:06:29.304Z,98762
2017-08-30T07:08:35.336Z,98757
2017-08-30T07:10:46.239Z,98756
2017-08-30T07:12:53.084Z,98754
2017-08-30T07:14:59.511Z,98753
2017-08-30T07:17:05.290Z,98750
2017-08-30T07:19:11.266Z,98748
2017-08-30T07:21:17.535Z,98747
2017-08-30T07:23:25.024Z,98749
2017-08-30T07:25:31.173Z,98741
2017-08-30T07:27:38.793Z,98742
2017-08-30T07:29:46.338Z,98734
2017-08-30T07:31:55.283Z,98738
2017-08-30T07:34:02.005Z,98740
2017-08-30T07:36:09.601Z,98736
2017-08-30T07:38:16.946Z,98739
2017-08-30T07:40:23.405Z,98740
2017-08-30T07:42:30.004Z,98738
2017-08-30T07:44:36.510Z,98741
2017-08-30T07:46:49.995Z,98739
2017-08-30T07:48:58.875Z,98736
2017-08-30T07:51:05.956Z,98737
2017-08-30T07:53:13.964Z,98736
2017-08-30T07:55:21.427Z,98734
2017-08-30T07:57:27.482Z,98733
2017-08-30T07:59:34.106Z,98734
2017-08-30T08:01:43.539Z,98725
2017-08-30T08:03:50.761Z,98731
2017-08-30T08:06:03.887Z,98733
2017-08-30T08:08:11.066Z,98735
2017-08-30T08:10:18.666Z,98736
2017-08-30T08:12:30.098Z,98729
2017-08-30T08:14:37.004Z,98724
2017-08-30T08:16:47.890Z,98725
2017-08-30T08:18:57.032Z,98722
2017-08-30T08:21:03.187Z,98729
2017-08-30T08:23:11.468Z,98736
2017-08-30T08:25:19.696Z,98731
2017-08-30T08:27:25.774Z,98735
2017-08-30T08:29:36.132Z,98727
2017-08-30T08:31:46.067Z,98728
2017-08-30T08:33:54.975Z,98719
2017-08-30T08:36:00.960Z,98714
2017-08-30T08:38:07.946Z,98715
2017-08-30T08:40:14.076Z,98708
2017-08-30T08:42:19.674Z,98710
2017-08-30T08:44:29.154Z,98707
2017-08-30T08:46:35.321Z,98708
2017-08-30T08:48:44.648Z,98705
2017-08-30T08:50:59.323Z,98703
2017-08-30T08:53:06.646Z,98701
2017-08-30T08:55:13.219Z,98704
2017-08-30T08:57:21.152Z,98690
2017-08-30T08:59:28.951Z,98687
2017-08-30T09:01:35.991Z,98688
2017-08-30T09:03:47.472Z,98681
2017-08-30T09:05:54.507Z,98681
2017-08-30T09:08:01.257Z,98672
2017-08-30T09:10:09.643Z,98690
2017-08-30T09:12:15.869Z,98684
2017-08-30T09:14:22.104Z,98684
2017-08-30T09:16:28.179Z,98678
2017-08-30T09:18:34.225Z,98683
2017-08-30T09:20:40.652Z,98678
2017-08-30T09:22:47.905Z,98681
2017-08-30T09:24:56.208Z,98674
2017-08-30T09:27:02.132Z,98673
2017-08-30T09:29:07.795Z,98667
2017-08-30T09:31:13.477Z,98669
2017-08-30T09:33:19.787Z,98667
2017-08-30T09:35:27.121Z,98668
2017-08-30T09:37:34.011Z,98663
2017-08-30T09:39:41.499Z,98666
2017-08-30T09:41:48.966Z,98661
2017-08-30T09:43:59.727Z,98653
2017-08-30T09:46:05.997Z,98656
2017-08-30T09:48:12.821Z,98653
2017-08-30T09:50:19.283Z,98647
2017-08-30T09:52:25.221Z,98652
2017-08-30T09:54:30.814Z,98641
2017-08-30T09:56:36.548Z,98645
2017-08-30T09:58:47.395Z,98639
2017-08-30T10:00:55.254Z,98637
2017-08-30T10:03:02.072Z,98633
2017-08-30T10:05:08.636Z,98633
2017-08-30T10:07:14.750Z,98630
2017-08-30T10:09:20.599Z,98632
2017-08-30T10:11:26.131Z,98625
2017-08-30T10:13:32.028Z,98628
2017-08-30T10:15:39.127Z,98626
2017-08-30T10:17:47.675Z,98636
2017-08-30T10:19:53.953Z,98630
2017-08-30T10:22:00.763Z,98628
2017-08-30T10:24:07.710Z,98631
2017-08-30T10:26:13.252Z,98625
2017-08-30T10:28:18.834Z,98624
2017-08-30T10:30:29.456Z,98615
2017-08-30T10:32:37.605Z,98614
2017-08-30T10:34:45.254Z,98618
2017-08-30T10:36:58.879Z,98608
2017-08-30T10:39:07.907Z,98606
2017-08-30T10:41:19.428Z,98596
2017-08-30T10:43:26.220Z,98589
2017-08-30T10:45:32.572Z,98595
2017-08-30T10:47:39.149Z,98587
2017-08-30T10:49:47.092Z,98586
2017-08-30T10:51:52.982Z,98578
2017-08-30T10:54:08.934Z,98583
2017-08-30T10:56:14.827Z,98580
2017-08-30T10:58:20.546Z,98578
2017-08-30T11:00:26.294Z,98589
2017-08-30T11:02:37.287Z,98591
2017-08-30T11:07:03.869Z,98590
2017-08-30T11:09:11.779Z,98585
2017-08-30T11:11:19.834Z,98586
2017-08-30T11:13:28.369Z,98581
2017-08-30T11:15:34.849Z,98567
2017-08-30T11:17:44.621Z,98572
2017-08-30T11:19:54.858Z,98561
2017-08-30T11:22:02.506Z,98563
2017-08-30T11:24:08.112Z,98565
2017-08-30T11:26:14.235Z,98557
2017-08-30T11:28:20.733Z,98560
2017-08-30T11:30:26.424Z,98555
2017-08-30T11:32:32.130Z,98547
2017-08-30T11:34:38.606Z,98536
2017-08-30T11:36:47.059Z,98539
2017-08-30T11:38:55.761Z,98535
2017-08-30T11:41:02.012Z,98535
2017-08-30T11:43:07.870Z,98540
2017-08-30T11:45:13.563Z,98537
2017-08-30T11:47:19.465Z,98533
2017-08-30T11:49:25.055Z,98529
2017-08-30T11:51:30.580Z,98542
2017-08-30T11:53:37.544Z,98531
2017-08-30T11:55:46.853Z,98525
2017-08-30T11:57:57.506Z,98527
2017-08-30T12:00:03.489Z,98521
2017-08-30T12:02:10.272Z,98527
2017-08-30T12:04:16.453Z,98514
2017-08-30T12:06:22.033Z,98515
2017-08-30T12:08:27.654Z,98516
2017-08-30T12:10:33.230Z,98514
2017-08-30T12:12:39.928Z,98522
2017-08-30T12:14:48.176Z,98520
2017-08-30T12:16:54.913Z,98523
2017-08-30T12:19:01.816Z,98514
2017-08-30T12:21:07.912Z,98517
2017-08-30T12:23:13.390Z,98512
2017-08-30T12:25:19.481Z,98506
2017-08-30T12:27:26.628Z,98504
2017-08-30T12:29:42.647Z,98505
2017-08-30T12:31:56.720Z,98503
2017-08-30T12:34:02.313Z,98506
2017-08-30T12:36:07.858Z,98508
2017-08-30T12:40:19.572Z,98502
2017-08-30T12:42:26.377Z,98503
2017-08-30T12:44:32.827Z,98504
2017-08-30T12:46:40.355Z,98498
2017-08-30T12:48:53.887Z,98485
2017-08-30T12:51:01.617Z,98496
2017-08-30T12:53:08.523Z,98500
2017-08-30T12:55:14.839Z,98492
2017-08-30T12:57:20.965Z,98484
2017-08-30T12:59:27.196Z,98488
2017-08-30T13:01:33.303Z,98487
2017-08-30T13:03:48.591Z,98491
2017-08-30T13:05:58.973Z,98480
2017-08-30T13:08:09.267Z,98490
2017-08-30T13:10:27.540Z,98489
2017-08-30T13:12:33.869Z,98490
2017-08-30T13:14:41.085Z,98488
2017-08-30T13:16:49.368Z,98481
2017-08-30T13:18:57.980Z,98488
2017-08-30T13:21:03.996Z,98477
2017-08-30T13:23:10.777Z,98482
2017-08-30T13:25:16.995Z,98480
2017-08-30T13:27:24.775Z,98491
2017-08-30T13:29:31.716Z,98503
2017-08-30T13:31:39.908Z,98474
2017-08-30T13:33:48.245Z,98502
2017-08-30T13:35:58.423Z,98491
2017-08-30T13:38:12.043Z,98491
2017-08-30T13:40:18.621Z,98491
2017-08-30T13:42:24.482Z,98487
2017-08-30T13:44:31.874Z,98492
2017-08-30T13:46:43.520Z,98493
2017-08-30T13:48:54.668Z,98497
2017-08-30T13:51:03.590Z,98498
2017-08-30T13:53:16.939Z,98498
2017-08-30T13:55:29.244Z,98497
2017-08-30T14:02:02.056Z,98496
2017-08-30T14:04:08.732Z,98486
2017-08-30T14:06:18.020Z,98479
2017-08-30T14:08:25.149Z,98471
2017-08-30T14:10:44.528Z,98467
2017-08-30T14:12:52.314Z,98463
2017-08-30T14:14:59.630Z,98467
2017-08-30T14:17:05.855Z,98462
2017-08-30T14:19:11.944Z,98454
2017-08-30T14:21:18.415Z,98459
2017-08-30T14:23:29.300Z,98458
2017-08-30T14:25:38.557Z,98458
2017-08-30T14:27:47.273Z,98461
2017-08-30T14:29:57.193Z,98467
2017-08-30T14:32:03.968Z,98463
2017-08-30T14:34:10.028Z,98470
2017-08-30T14:36:16.119Z,98474
2017-08-30T14:38:22.344Z,98468
2017-08-30T14:40:31.837Z,98474
2017-08-30T14:48:36.406Z,98443
2017-08-30T14:50:47.464Z,98442
2017-08-30T14:52:56.264Z,98449
2017-08-30T14:55:02.028Z,98442
2017-08-30T14:57:08.469Z,98441
2017-08-30T14:59:15.878Z,98436
2017-08-30T15:01:21.376Z,98433
2017-08-30T15:03:27.884Z,98427
2017-08-30T15:06:21.953Z,98418
2017-08-30T15:08:32.945Z,98422
2017-08-30T15:10:39.180Z,98419
2017-08-30T15:12:48.254Z,98417
2017-08-30T15:14:56.953Z,98406
2017-08-30T15:17:03.739Z,98406
2017-08-30T15:19:09.512Z,98401
2017-08-30T15:21:16.761Z,98397
2017-08-30T15:23:23.653Z,98393
2017-08-30T15:25:29.815Z,98392
2017-08-30T15:27:35.601Z,98383
2017-08-30T15:29:42.423Z,98387
2017-08-30T15:31:49.938Z,98410
2017-08-30T15:33:56.802Z,98391
2017-08-30T15:36:03.374Z,98401
2017-08-30T15:38:09.433Z,98393
2017-08-30T15:40:16.013Z,98384
2017-08-30T15:42:22.386Z,98389
2017-08-30T15:44:28.892Z,98385
2017-08-30T15:46:35.085Z,98394
2017-08-30T15:48:44.485Z,98395
2017-08-30T15:50:52.317Z,98393
2017-08-30T15:53:00.000Z,98393
2017-08-30T15:55:10.070Z,98397
2017-08-30T15:57:16.781Z,98403
2017-08-30T15:59:23.176Z,98398
2017-08-30T16:01:29.692Z,98406
2017-08-30T16:03:36.288Z,98400
2017-08-30T16:05:43.738Z,98400
2017-08-30T16:07:53.556Z,98395
2017-08-30T16:09:59.627Z,98395
2017-08-30T16:12:05.497Z,98396
2017-08-30T16:14:12.595Z,98392
2017-08-30T16:16:18.460Z,98391
2017-08-30T16:18:24.489Z,98395
2017-08-30T16:20:31.430Z,98384
2017-08-30T16:22:38.395Z,98393
2017-08-30T16:24:46.266Z,98388
2017-08-30T16:26:54.625Z,98387
2017-08-30T16:29:01.331Z,98382
2017-08-30T16:39:37.889Z,98382
2017-08-30T16:41:49.380Z,98377
2017-08-30T16:43:56.145Z,98379
2017-08-30T16:46:03.834Z,98376
2017-08-30T16:48:11.352Z,98386
2017-08-30T16:50:18.367Z,98382
2017-08-30T16:52:26.012Z,98392
2017-08-30T16:54:35.017Z,98391
2017-08-30T16:56:43.571Z,98394
2017-08-30T16:58:55.387Z,98387
2017-08-30T17:01:02.699Z,98382
2017-08-30T17:03:22.059Z,98384
2017-08-30T17:05:28.837Z,98385
2017-08-30T17:07:40.158Z,98388
2017-08-30T17:09:53.038Z,98390
2017-08-30T17:12:04.892Z,98392
2017-08-30T17:14:13.388Z,98395
2017-08-30T17:16:22.337Z,98390
2017-08-30T17:18:34.619Z,98394
2017-08-30T17:24:19.232Z,98389
2017-08-30T17:26:44.168Z,98381
2017-08-30T17:29:18.869Z,98387
2017-08-30T17:31:33.941Z,98384
2017-08-30T17:35:55.705Z,98391
2017-08-30T17:38:03.552Z,98388
2017-08-30T17:40:10.706Z,98390
2017-08-30T17:42:18.142Z,98388
2017-08-30T17:44:24.635Z,98394
2017-08-30T17:46:31.382Z,98389
2017-08-30T17:48:37.607Z,98397
2017-08-30T17:50:45.840Z,98393
2017-08-30T17:52:55.024Z,98391
2017-08-30T17:55:01.996Z,98390
2017-08-30T17:57:15.917Z,98382
2017-08-30T17:59:26.273Z,98387
2017-08-30T18:01:34.724Z,98382
2017-08-30T18:03:42.703Z,98388
2017-08-30T18:06:37.424Z,98372
2017-08-30T18:08:43.969Z,98384
2017-08-30T18:10:50.592Z,98394
2017-08-30T18:15:00.649Z,98397
2017-08-30T18:17:08.902Z,98394
2017-08-30T18:19:42.727Z,98393
2017-08-30T18:26:39.650Z,98401
2017-08-30T18:29:11.587Z,98396
2017-08-30T18:31:55.775Z,98400
2017-08-30T18:41:03.532Z,98404
2017-08-30T18:43:12.168Z,98418
2017-08-30T18:45:18.947Z,98418
2017-08-30T18:47:25.352Z,98418
2017-08-30T18:49:36.795Z,98418
2017-08-30T18:51:49.465Z,98420
2017-08-30T18:53:58.936Z,98424
2017-08-30T18:56:06.397Z,98421
2017-08-30T18:58:14.258Z,98420
2017-08-30T19:00:24.816Z,98413
2017-08-30T19:02:32.571Z,98420
2017-08-30T19:04:42.578Z,98413
2017-08-30T19:06:52.999Z,98412
2017-08-30T19:09:01.888Z,98411
2017-08-30T19:11:08.641Z,98408
2017-08-30T19:19:02.594Z,98405
2017-08-30T19:21:08.913Z,98412
2017-08-30T19:23:16.254Z,98402
2017-08-30T19:25:23.425Z,98400
2017-08-30T19:29:55.159Z,98385
2017-08-30T19:32:05.209Z,98374
2017-08-30T19:34:11.362Z,98371
2017-08-30T19:42:34.719Z,98392
2017-08-30T19:45:56.006Z,98395
2017-08-30T19:54:35.290Z,98387
2017-08-30T20:00:06.925Z,98380
2017-08-30T20:02:13.240Z,98389
2017-08-30T20:04:24.339Z,98390
2017-08-30T20:06:31.007Z,98384
2017-08-30T20:08:39.825Z,98390
2017-08-30T20:10:46.310Z,98395
2017-08-30T20:12:53.176Z,98394
2017-08-30T20:14:59.000Z,98393
2017-08-30T20:39:52.928Z,98391
2017-08-30T20:46:53.605Z,98399
2017-08-30T21:00:22.831Z,98409
2017-08-30T21:02:29.333Z,98410
2017-08-30T21:04:35.470Z,98410
2017-08-30T21:06:46.444Z,98410
2017-08-30T21:08:54.867Z,98414
2017-08-30T21:11:00.600Z,98407
2017-08-30T21:13:07.746Z,98411
2017-08-30T21:15:14.505Z,98412
2017-08-30T21:17:21.272Z,98416
2017-08-30T21:19:27.738Z,98417
2017-08-30T21:21:33.264Z,98417
2017-08-30T21:23:41.102Z,98420
2017-08-30T21:25:52.653Z,98423
2017-08-30T21:28:00.113Z,98419
2017-08-30T21:30:37.041Z,98418
2017-08-30T21:32:47.474Z,98414
2017-08-30T21:34:54.700Z,98420
2017-08-30T21:37:00.925Z,98420
2017-08-30T21:39:08.266Z,98426
2017-08-30T21:41:15.062Z,98416
2017-08-30T21:43:21.118Z,98422
2017-08-30T21:45:35.772Z,98426
2017-08-30T21:47:43.154Z,98418
2017-08-30T21:49:53.994Z,98411
2017-08-30T21:52:04.326Z,98405
2017-08-30T21:54:10.840Z,98404
2017-08-30T21:56:17.721Z,98401
2017-08-30T21:58:23.803Z,98385
2017-08-30T22:00:29.603Z,98393
2017-08-30T22:02:35.346Z,98403
2017-08-30T22:04:44.860Z,98406
2017-08-30T22:06:52.354Z,98398
2017-08-30T22:08:59.403Z,98403
2017-08-30T22:11:06.044Z,98411
2017-08-30T22:13:12.408Z,98415
2017-08-30T22:15:18.604Z,98423
2017-08-30T22:17:25.470Z,98420
2017-08-30T22:19:31.926Z,98420
2017-08-30T22:21:38.324Z,98435
2017-08-30T22:23:47.112Z,98449
2017-08-30T22:25:54.003Z,98460
2017-08-30T22:27:59.696Z,98455
2017-08-30T22:30:06.723Z,98442
2017-08-30T22:32:13.386Z,98444
2017-08-30T22:34:19.933Z,98460
2017-08-30T22:36:28.423Z,98474
2017-08-30T22:38:35.454Z,98479
2017-08-30T22:40:46.080Z,98482
2017-08-30T22:42:57.296Z,98473
2017-08-30T22:45:03.440Z,98462
2017-08-30T22:47:09.823Z,98449
2017-08-30T22:49:17.133Z,98465
2017-08-30T22:51:23.968Z,98473
2017-08-30T22:53:29.981Z,98473
2017-08-30T22:55:40.948Z,98466
2017-08-30T22:57:52.999Z,98466
2017-08-30T22:59:59.992Z,98462
2017-08-30T23:02:06.051Z,98453
2017-08-30T23:04:11.948Z,98458
2017-08-30T23:06:18.419Z,98455
2017-08-30T23:08:24.239Z,98455
2017-08-30T23:10:30.424Z,98451
2017-08-30T23:12:36.014Z,98448
2017-08-30T23:14:46.261Z,98459
2017-08-30T23:16:54.004Z,98478
2017-08-30T23:18:59.962Z,98484
2017-08-30T23:21:06.423Z,98490
2017-08-30T23:23:12.894Z,98486
2017-08-30T23:25:19.180Z,98477
2017-08-30T23:27:24.563Z,98479
2017-08-30T23:29:30.712Z,98476
2017-08-30T23:31:36.986Z,98476
2017-08-30T23:33:47.186Z,98480
2017-08-30T23:35:55.640Z,98480
2017-08-30T23:38:02.599Z,98490
2017-08-30T23:40:09.113Z,98508
2017-08-30T23:42:15.404Z,98497
2017-08-30T23:44:21.321Z,98495
2017-08-30T23:46:27.516Z,98507
2017-08-30T23:48:33.912Z,98509
2017-08-30T23:50:41.443Z,98510
2017-08-30T23:52:50.712Z,98519
2017-08-30T23:54:57.704Z,98522
2017-08-30T23:57:03.634Z,98523
2017-08-30T23:59:10.512Z,98520
